Time;durP1;ratioP1;P1;durP2;ratioP2;P2;SDS_P1;SDS_P2;PMS_P1;PMS_P2;Temp;Humidity;BMP_temperature;BMP_pressure;BME280_temperature;BME280_humidity;BME280_pressure;Samples;Min_cycle;Max_cycle;Signal;HPM_P1;HPM_P2
2021/10/13 00:01:13;;;;;;;10.30;6.28;;;8.20;95.90;;;;;;4877175;29;20040;-68
2021/10/13 00:03:39;;;;;;;10.73;6.95;;;8.30;95.90;;;;;;4876274;29;20036;-66
2021/10/13 00:06:04;;;;;;;11.48;6.72;;;8.20;95.90;;;;;;4877129;29;20371;-66
2021/10/13 00:08:30;;;;;;;9.35;6.85;;;8.20;95.90;;;;;;4877594;29;20459;-66
2021/10/13 00:10:56;;;;;;;10.00;7.28;;;8.20;96.00;;;;;;4877163;29;20076;-69
2021/10/13 00:13:21;;;;;;;8.35;6.20;;;8.20;95.90;;;;;;4876451;29;20063;-65
2021/10/13 00:15:47;;;;;;;12.05;6.63;;;8.20;96.00;;;;;;4873284;29;20032;-66
2021/10/13 00:18:12;;;;;;;9.60;6.88;;;8.20;96.00;;;;;;4865231;29;20040;-66
2021/10/13 00:20:38;;;;;;;10.30;6.70;;;8.20;96.00;;;;;;4863106;29;20551;-67
2021/10/13 00:23:04;;;;;;;8.48;6.45;;;8.10;95.90;;;;;;4873969;29;20040;-66
2021/10/13 00:25:29;;;;;;;10.05;6.32;;;8.20;96.00;;;;;;4874157;29;20033;-66
2021/10/13 00:27:55;;;;;;;9.18;6.65;;;8.20;95.90;;;;;;4874543;29;20047;-66
2021/10/13 00:30:21;;;;;;;8.73;6.35;;;8.20;95.90;;;;;;4876194;29;20025;-67
2021/10/13 00:32:46;;;;;;;8.82;6.35;;;8.10;96.00;;;;;;4870197;29;20057;-68
2021/10/13 00:35:12;;;;;;;8.68;5.75;;;8.10;96.00;;;;;;4875792;29;20032;-66
2021/10/13 00:37:38;;;;;;;7.70;5.85;;;8.10;95.90;;;;;;4876688;29;20452;-66
2021/10/13 00:40:05;;;;;;;9.10;6.07;;;8.10;95.90;;;;;;4876684;29;20097;-66
2021/10/13 00:42:31;;;;;;;9.32;6.10;;;8.10;95.90;;;;;;4876773;29;20102;-69
2021/10/13 00:44:56;;;;;;;8.98;6.07;;;8.00;95.80;;;;;;4874476;29;20522;-66
2021/10/13 00:47:22;;;;;;;8.00;5.70;;;8.00;95.90;;;;;;4876455;29;20037;-66
2021/10/13 00:49:47;;;;;;;9.70;6.43;;;8.00;95.90;;;;;;4875457;29;20025;-66
2021/10/13 00:52:16;;;;;;;12.27;7.68;;;8.00;95.90;;;;;;4876505;29;20037;-66
2021/10/13 00:54:43;;;;;;;10.90;7.20;;;7.90;95.90;;;;;;4872462;29;20032;-66
2021/10/13 00:57:09;;;;;;;8.80;6.28;;;8.00;95.90;;;;;;4876299;29;20052;-69
2021/10/13 00:59:35;;;;;;;10.93;6.55;;;8.00;95.90;;;;;;4876831;29;20029;-69
2021/10/13 01:02:06;;;;;;;9.85;6.93;;;8.00;96.00;;;;;;4876401;29;20033;-66
2021/10/13 01:04:44;;;;;;;10.82;7.18;;;8.00;96.00;;;;;;4874891;29;20120;-66
2021/10/13 01:07:47;;;;;;;11.65;7.03;;;8.00;96.00;;;;;;4876279;29;20120;-68
2021/10/13 01:10:39;;;;;;;11.77;6.97;;;7.90;96.00;;;;;;4860768;29;20029;-66
2021/10/13 01:13:16;;;;;;;9.68;6.68;;;8.00;96.00;;;;;;4875252;29;20048;-66
2021/10/13 01:15:51;;;;;;;10.43;6.90;;;8.00;96.00;;;;;;4876523;29;20032;-66
2021/10/13 01:18:27;;;;;;;9.30;7.05;;;8.00;96.00;;;;;;4867590;29;20026;-65
2021/10/13 01:20:59;;;;;;;10.38;6.82;;;8.00;96.10;;;;;;4857888;29;20432;-65
2021/10/13 01:23:42;;;;;;;12.50;6.53;;;8.00;96.00;;;;;;4874338;29;20052;-66
2021/10/13 01:26:11;;;;;;;8.57;6.05;;;8.00;96.00;;;;;;4867022;29;20033;-67
2021/10/13 01:28:41;;;;;;;12.77;6.65;;;8.10;96.00;;;;;;4868220;29;20334;-66
2021/10/13 01:31:15;;;;;;;10.30;6.70;;;8.10;96.00;;;;;;4876009;29;20390;-66
2021/10/13 01:33:49;;;;;;;9.18;6.30;;;8.10;96.00;;;;;;4867582;29;20123;-66
2021/10/13 01:36:20;;;;;;;10.00;6.32;;;8.10;95.90;;;;;;4873472;29;20036;-66
2021/10/13 01:38:52;;;;;;;8.10;5.50;;;8.00;95.90;;;;;;4862513;29;20431;-65
2021/10/13 01:41:20;;;;;;;8.25;5.35;;;8.00;95.90;;;;;;4876120;29;20095;-66
2021/10/13 01:43:49;;;;;;;8.13;5.43;;;8.00;95.90;;;;;;4875103;29;20025;-65
2021/10/13 01:46:16;;;;;;;7.38;5.55;;;8.00;95.90;;;;;;4876061;29;20033;-67
2021/10/13 01:48:44;;;;;;;8.88;5.22;;;8.00;96.00;;;;;;4876241;29;20025;-66
2021/10/13 01:51:11;;;;;;;7.43;5.15;;;8.00;95.90;;;;;;4893066;23;20036;-68
2021/10/13 01:53:39;;;;;;;8.52;5.15;;;8.00;96.00;;;;;;4874610;29;20034;-68
2021/10/13 01:56:06;;;;;;;8.25;4.97;;;8.00;95.90;;;;;;4869349;29;20363;-68
2021/10/13 01:58:35;;;;;;;7.80;5.97;;;7.90;95.80;;;;;;4864047;29;20044;-69
2021/10/13 02:01:02;;;;;;;8.40;5.45;;;7.90;95.90;;;;;;4875294;29;20514;-69
2021/10/13 02:03:29;;;;;;;8.30;5.40;;;7.90;95.80;;;;;;4876649;29;20081;-68
2021/10/13 02:06:00;;;;;;;8.50;5.65;;;7.80;95.80;;;;;;4876360;29;20056;-68
2021/10/13 02:08:28;;;;;;;8.35;4.78;;;7.80;95.80;;;;;;4875026;29;20040;-68
2021/10/13 02:10:55;;;;;;;7.97;4.80;;;7.80;95.90;;;;;;4880172;29;20029;-69
2021/10/13 02:13:22;;;;;;;10.25;6.25;;;7.80;95.90;;;;;;4878501;29;20025;-70
2021/10/13 02:15:49;;;;;;;9.10;5.35;;;7.80;95.90;;;;;;4879883;29;20371;-69
2021/10/13 02:18:21;;;;;;;7.25;5.03;;;7.80;95.90;;;;;;4880124;29;20108;-68
2021/10/13 02:20:48;;;;;;;9.88;5.15;;;7.70;95.80;;;;;;4880222;29;20032;-65
2021/10/13 02:23:15;;;;;;;7.38;5.40;;;7.70;95.80;;;;;;4872874;29;20029;-66
2021/10/13 02:25:46;;;;;;;11.82;6.20;;;7.70;95.80;;;;;;4880201;29;20021;-65
2021/10/13 02:28:16;;;;;;;10.38;6.15;;;7.70;95.80;;;;;;4879707;29;20025;-65
2021/10/13 02:30:42;;;;;;;9.38;5.95;;;7.60;96.00;;;;;;4869382;29;20045;-66
2021/10/13 02:33:07;;;;;;;8.10;5.35;;;7.50;95.70;;;;;;4870116;29;20068;-66
2021/10/13 02:35:33;;;;;;;6.97;5.38;;;7.50;95.80;;;;;;4878915;29;20044;-65
2021/10/13 02:37:58;;;;;;;7.85;5.47;;;7.50;95.80;;;;;;4879666;29;20554;-66
2021/10/13 02:40:24;;;;;;;7.65;5.43;;;7.50;95.80;;;;;;4879661;29;20077;-65
2021/10/13 02:42:52;;;;;;;8.80;5.75;;;7.40;95.80;;;;;;4877760;29;20072;-67
2021/10/13 02:45:18;;;;;;;7.78;5.25;;;7.40;95.70;;;;;;4863647;29;20048;-65
2021/10/13 02:47:55;;;;;;;9.77;5.55;;;7.40;95.70;;;;;;4876534;29;20506;-67
2021/10/13 02:50:35;;;;;;;7.28;5.45;;;7.30;95.70;;;;;;4871686;29;20090;-66
2021/10/13 02:53:40;;;;;;;9.00;5.55;;;7.30;95.70;;;;;;4876556;29;20029;-65
2021/10/13 02:56:22;;;;;;;7.80;5.18;;;7.20;95.70;;;;;;4878612;29;20552;-65
2021/10/13 02:58:54;;;;;;;6.20;3.72;;;7.20;95.80;;;;;;4879460;29;20025;-65
2021/10/13 03:01:23;;;;;;;8.17;5.03;;;7.20;95.70;;;;;;4877587;29;20467;-65
2021/10/13 03:03:59;;;;;;;7.45;4.80;;;7.20;95.70;;;;;;4878434;29;20037;-66
2021/10/13 03:06:30;;;;;;;6.95;4.95;;;7.10;95.70;;;;;;4878936;29;20490;-66
2021/10/13 03:08:56;;;;;;;7.55;4.93;;;7.10;95.70;;;;;;4877518;29;20033;-65
2021/10/13 03:11:27;;;;;;;7.18;5.00;;;7.10;95.70;;;;;;4878976;29;20231;-65
2021/10/13 03:13:53;;;;;;;8.98;5.50;;;7.10;95.70;;;;;;4878179;29;20033;-66
2021/10/13 03:16:20;;;;;;;8.35;5.32;;;7.20;95.80;;;;;;4878810;29;20033;-66
2021/10/13 03:18:47;;;;;;;7.70;5.15;;;7.20;95.80;;;;;;4876567;29;20049;-66
2021/10/13 03:21:14;;;;;;;10.13;5.53;;;7.20;95.70;;;;;;4878338;29;20133;-66
2021/10/13 03:23:40;;;;;;;8.65;5.45;;;7.20;95.70;;;;;;4867389;29;20029;-66
2021/10/13 03:26:08;;;;;;;8.45;5.47;;;7.20;95.70;;;;;;4870703;29;20033;-65
2021/10/13 03:28:35;;;;;;;7.68;5.07;;;7.20;95.60;;;;;;4874301;29;20566;-65
2021/10/13 03:31:01;;;;;;;8.40;5.25;;;7.20;95.60;;;;;;4873376;29;20044;-65
2021/10/13 03:33:26;;;;;;;7.20;5.32;;;7.20;95.60;;;;;;4877487;29;20029;-66
2021/10/13 03:35:52;;;;;;;8.43;5.03;;;7.10;95.60;;;;;;4861977;29;20041;-65
2021/10/13 03:38:18;;;;;;;10.35;5.03;;;7.10;95.50;;;;;;4877855;29;20040;-65
2021/10/13 03:40:43;;;;;;;9.23;5.68;;;7.10;95.50;;;;;;4877336;29;20043;-67
2021/10/13 03:43:09;;;;;;;8.32;5.18;;;7.10;95.50;;;;;;4877569;29;20469;-65
2021/10/13 03:45:35;;;;;;;9.57;5.35;;;7.00;95.40;;;;;;4876832;29;20760;-65
2021/10/13 03:48:01;;;;;;;8.95;5.13;;;7.00;95.40;;;;;;4877330;29;20040;-66
2021/10/13 03:50:27;;;;;;;7.95;5.70;;;7.00;95.40;;;;;;4877369;29;20033;-65
2021/10/13 03:52:52;;;;;;;7.85;5.13;;;6.90;95.40;;;;;;4866987;29;20029;-65
2021/10/13 03:55:19;;;;;;;7.85;5.47;;;6.80;95.40;;;;;;4862442;29;20390;-66
2021/10/13 03:57:45;;;;;;;10.02;5.63;;;6.80;95.40;;;;;;4870870;29;20105;-66
2021/10/13 04:00:14;;;;;;;9.02;5.78;;;6.70;95.40;;;;;;4877649;29;20458;-66
2021/10/13 04:02:40;;;;;;;9.25;5.80;;;6.70;95.40;;;;;;4876060;29;20031;-66
2021/10/13 04:05:07;;;;;;;11.40;5.97;;;6.70;95.40;;;;;;4876812;29;20131;-66
2021/10/13 04:07:33;;;;;;;8.70;5.65;;;6.60;95.40;;;;;;4877832;29;20037;-66
2021/10/13 04:09:59;;;;;;;9.75;5.57;;;6.60;95.40;;;;;;4878096;29;20116;-66
2021/10/13 04:12:26;;;;;;;9.07;5.82;;;6.60;95.40;;;;;;4878270;29;20028;-65
2021/10/13 04:14:51;;;;;;;8.75;5.78;;;6.50;95.40;;;;;;4876226;29;20120;-66
2021/10/13 04:17:20;;;;;;;7.75;5.57;;;6.50;95.40;;;;;;4877635;29;20112;-66
2021/10/13 04:19:46;;;;;;;8.40;5.25;;;6.50;95.40;;;;;;4877156;29;20387;-65
2021/10/13 04:22:12;;;;;;;7.50;5.93;;;6.50;95.40;;;;;;4869697;29;20037;-65
2021/10/13 04:24:37;;;;;;;6.47;5.10;;;6.40;95.40;;;;;;4866277;29;20043;-66
2021/10/13 04:27:03;;;;;;;6.63;5.28;;;6.40;95.40;;;;;;4871740;29;20036;-65
2021/10/13 04:29:29;;;;;;;7.20;5.13;;;6.40;95.40;;;;;;4873802;29;20402;-66
2021/10/13 04:31:55;;;;;;;7.45;5.18;;;6.30;95.40;;;;;;4866366;29;20041;-67
2021/10/13 04:34:20;;;;;;;7.53;4.82;;;6.30;95.40;;;;;;4872238;29;20040;-65
2021/10/13 04:36:46;;;;;;;7.13;5.10;;;6.30;95.50;;;;;;4868022;29;20025;-66
2021/10/13 04:39:11;;;;;;;8.02;5.53;;;6.30;95.40;;;;;;4878070;29;20031;-65
2021/10/13 04:41:37;;;;;;;7.38;4.72;;;6.30;95.40;;;;;;4877501;29;20119;-67
2021/10/13 04:44:03;;;;;;;6.80;4.70;;;6.30;95.40;;;;;;4876941;29;20331;-66
2021/10/13 04:46:28;;;;;;;7.45;4.82;;;6.20;95.40;;;;;;4876942;29;20029;-66
2021/10/13 04:48:54;;;;;;;6.05;4.57;;;6.30;95.40;;;;;;4877888;29;20518;-66
2021/10/13 04:51:19;;;;;;;5.65;4.68;;;6.20;95.40;;;;;;4876719;29;20067;-66
2021/10/13 04:53:45;;;;;;;6.90;4.63;;;6.30;95.50;;;;;;4872176;29;20524;-67
2021/10/13 04:56:11;;;;;;;4.75;4.05;;;6.20;95.40;;;;;;4863749;29;20021;-66
2021/10/13 04:58:36;;;;;;;5.90;4.35;;;6.20;95.40;;;;;;4875998;29;20033;-66
2021/10/13 05:01:02;;;;;;;7.82;5.10;;;6.20;95.40;;;;;;4877593;29;20033;-66
2021/10/13 05:03:28;;;;;;;5.82;4.80;;;6.20;95.30;;;;;;4876180;29;20041;-66
2021/10/13 05:05:53;;;;;;;7.43;5.13;;;6.20;95.40;;;;;;4877644;29;20025;-67
2021/10/13 05:08:19;;;;;;;6.68;4.40;;;6.20;95.40;;;;;;4876991;29;20033;-66
2021/10/13 05:10:45;;;;;;;7.45;5.13;;;6.20;95.40;;;;;;4876115;29;20115;-66
2021/10/13 05:13:10;;;;;;;6.03;4.88;;;6.20;95.40;;;;;;4876946;29;20033;-66
2021/10/13 05:15:36;;;;;;;10.38;6.88;;;6.20;95.30;;;;;;4875306;29;20081;-66
2021/10/13 05:18:02;;;;;;;13.13;9.77;;;6.20;95.30;;;;;;4877295;29;20390;-68
2021/10/13 05:20:27;;;;;;;16.02;12.85;;;6.20;95.40;;;;;;4877115;29;20025;-68
2021/10/13 05:22:53;;;;;;;12.23;8.40;;;6.20;95.40;;;;;;4865798;29;20550;-68
2021/10/13 05:25:19;;;;;;;13.32;8.38;;;6.20;95.50;;;;;;4859249;29;20032;-68
2021/10/13 05:27:44;;;;;;;11.32;8.18;;;6.20;95.50;;;;;;4877043;29;20037;-71
2021/10/13 05:30:10;;;;;;;11.70;8.35;;;6.30;95.50;;;;;;4875359;29;20127;-70
2021/10/13 05:32:37;;;;;;;10.15;7.60;;;6.30;95.50;;;;;;4874500;29;20096;-71
2021/10/13 05:35:03;;;;;;;9.35;6.38;;;6.30;95.50;;;;;;4877018;29;20112;-68
2021/10/13 05:37:29;;;;;;;13.70;8.40;;;6.40;95.40;;;;;;4876896;29;20498;-68
2021/10/13 05:39:54;;;;;;;10.82;6.60;;;6.40;95.40;;;;;;4877271;29;20037;-70
2021/10/13 05:42:20;;;;;;;11.40;7.20;;;6.40;95.40;;;;;;4878241;29;20573;-67
2021/10/13 05:44:45;;;;;;;12.20;7.43;;;6.40;95.40;;;;;;4880276;29;20037;-68
2021/10/13 05:47:11;;;;;;;10.48;6.95;;;6.40;95.30;;;;;;4880474;29;20040;-68
2021/10/13 05:49:39;;;;;;;9.23;6.35;;;6.50;95.40;;;;;;4880463;29;20037;-68
2021/10/13 05:52:05;;;;;;;15.48;8.80;;;6.50;95.50;;;;;;4880546;29;20065;-69
2021/10/13 05:54:31;;;;;;;11.45;8.10;;;6.50;95.50;;;;;;4868832;29;20033;-68
2021/10/13 05:56:57;;;;;;;11.35;8.35;;;6.50;95.50;;;;;;4862362;29;20029;-65
2021/10/13 05:59:22;;;;;;;13.65;7.93;;;6.60;95.50;;;;;;4870705;29;20785;-65
2021/10/13 06:01:48;;;;;;;14.05;8.40;;;6.60;95.40;;;;;;4880652;29;20029;-65
2021/10/13 06:04:14;;;;;;;11.82;8.20;;;6.60;95.40;;;;;;4879472;29;20037;-65
2021/10/13 06:06:39;;;;;;;14.93;8.15;;;6.60;95.50;;;;;;4880093;29;20060;-67
2021/10/13 06:09:05;;;;;;;15.32;8.75;;;6.70;95.50;;;;;;4880356;29;20032;-66
2021/10/13 06:11:30;;;;;;;12.15;7.63;;;6.70;95.50;;;;;;4879143;29;20081;-66
2021/10/13 06:13:56;;;;;;;20.35;9.45;;;6.70;95.50;;;;;;4877935;29;20029;-65
2021/10/13 06:16:22;;;;;;;18.38;8.38;;;6.70;95.50;;;;;;4880241;29;20470;-66
2021/10/13 06:18:50;;;;;;;12.55;7.22;;;6.70;95.50;;;;;;4880245;29;20112;-65
2021/10/13 06:21:20;;;;;;;12.80;7.93;;;6.70;95.50;;;;;;4879045;29;20104;-68
2021/10/13 06:23:46;;;;;;;13.60;8.50;;;6.70;95.60;;;;;;4870894;29;20069;-65
2021/10/13 06:26:11;;;;;;;12.18;7.35;;;6.70;95.60;;;;;;4872144;29;20108;-66
2021/10/13 06:28:37;;;;;;;14.15;8.07;;;6.80;95.70;;;;;;4860286;29;20036;-65
2021/10/13 06:31:02;;;;;;;18.60;9.98;;;6.80;95.70;;;;;;4861602;29;20029;-65
2021/10/13 06:33:28;;;;;;;15.80;7.70;;;6.80;95.60;;;;;;4860978;29;20035;-66
2021/10/13 06:35:55;;;;;;;13.15;8.55;;;6.80;95.60;;;;;;4874276;29;20031;-68
2021/10/13 06:38:20;;;;;;;14.75;8.27;;;6.80;95.60;;;;;;4877068;29;20116;-65
2021/10/13 06:40:46;;;;;;;14.30;7.97;;;6.80;95.60;;;;;;4874874;29;20608;-68
2021/10/13 06:43:12;;;;;;;13.52;7.95;;;6.90;95.70;;;;;;4873605;29;20563;-66
2021/10/13 06:45:38;;;;;;;16.02;9.40;;;6.90;95.70;;;;;;4878502;29;20121;-67
2021/10/13 06:48:05;;;;;;;15.52;9.23;;;6.90;95.70;;;;;;4879770;29;20041;-65
2021/10/13 06:50:33;;;;;;;15.35;9.25;;;7.00;95.70;;;;;;4877913;29;20043;-66
2021/10/13 06:52:59;;;;;;;14.05;8.85;;;7.00;95.60;;;;;;4878049;29;20033;-67
2021/10/13 06:55:24;;;;;;;18.20;9.05;;;7.00;95.60;;;;;;4877197;29;20050;-65
2021/10/13 06:57:50;;;;;;;12.60;8.35;;;7.00;95.60;;;;;;4879705;29;20710;-65
2021/10/13 07:00:16;;;;;;;12.40;8.60;;;7.00;95.60;;;;;;4879020;29;20045;-68
2021/10/13 07:02:41;;;;;;;14.20;8.23;;;7.00;95.60;;;;;;4878381;29;20104;-68
2021/10/13 07:05:07;;;;;;;16.40;9.00;;;7.00;95.70;;;;;;4878205;29;20127;-68
2021/10/13 07:07:33;;;;;;;11.85;7.63;;;7.00;95.60;;;;;;4869227;29;20036;-69
2021/10/13 07:09:58;;;;;;;15.68;8.35;;;7.00;95.60;;;;;;4872607;29;20088;-68
2021/10/13 07:12:24;;;;;;;14.25;8.40;;;7.00;95.70;;;;;;4878841;29;20069;-68
2021/10/13 07:14:49;;;;;;;14.57;7.97;;;7.00;95.70;;;;;;4878367;29;20107;-68
2021/10/13 07:17:16;;;;;;;15.55;7.75;;;7.10;95.80;;;;;;4878906;29;20029;-70
2021/10/13 07:19:42;;;;;;;13.07;8.07;;;7.10;95.80;;;;;;4879252;29;20029;-69
2021/10/13 07:22:07;;;;;;;12.32;7.35;;;7.10;95.80;;;;;;4879044;29;20333;-68
2021/10/13 07:24:33;;;;;;;13.45;7.90;;;7.20;95.90;;;;;;4876724;29;20372;-69
2021/10/13 07:26:59;;;;;;;15.13;8.95;;;7.30;95.90;;;;;;4877557;29;20078;-71
2021/10/13 07:29:26;;;;;;;20.05;10.15;;;7.30;95.90;;;;;;4875524;29;20032;-72
2021/10/13 07:31:52;;;;;;;25.13;13.07;;;7.30;95.80;;;;;;4877047;29;20032;-73
2021/10/13 07:34:18;;;;;;;18.98;10.80;;;7.30;95.80;;;;;;4877774;29;20036;-72
2021/10/13 07:36:43;;;;;;;18.40;11.30;;;7.30;95.80;;;;;;4874300;29;20168;-72
2021/10/13 07:39:09;;;;;;;16.23;9.15;;;7.30;95.80;;;;;;4867830;29;20040;-70
2021/10/13 07:41:35;;;;;;;14.68;8.85;;;7.30;95.80;;;;;;4863608;29;20025;-72
2021/10/13 07:44:00;;;;;;;16.10;8.77;;;7.30;95.80;;;;;;4877541;29;20037;-67
2021/10/13 07:46:26;;;;;;;16.63;7.97;;;7.30;95.80;;;;;;4878358;29;20031;-69
2021/10/13 07:48:52;;;;;;;14.15;8.02;;;7.40;95.90;;;;;;4878896;29;20041;-68
2021/10/13 07:51:18;;;;;;;10.88;7.53;;;7.40;96.00;;;;;;4872499;29;20029;-67
2021/10/13 07:53:44;;;;;;;14.15;8.55;;;7.40;95.90;;;;;;4870656;29;20068;-67
2021/10/13 07:56:09;;;;;;;21.30;13.18;;;7.50;96.00;;;;;;4871826;29;20669;-67
2021/10/13 07:58:36;;;;;;;18.38;8.27;;;7.60;96.10;;;;;;4867997;29;20430;-67
2021/10/13 08:01:01;;;;;;;14.25;7.55;;;7.60;96.00;;;;;;4878358;29;20025;-67
2021/10/13 08:03:27;;;;;;;13.43;7.50;;;7.70;96.00;;;;;;4876587;29;20036;-68
2021/10/13 08:05:53;;;;;;;13.65;7.30;;;7.70;96.00;;;;;;4876935;29;20044;-69
2021/10/13 08:08:18;;;;;;;14.23;7.70;;;7.80;96.10;;;;;;4862353;29;20387;-67
2021/10/13 08:10:44;;;;;;;15.75;8.63;;;7.90;96.00;;;;;;4867429;29;20683;-68
2021/10/13 08:13:09;;;;;;;12.10;7.95;;;7.90;96.00;;;;;;4873984;29;20100;-68
2021/10/13 08:15:35;;;;;;;14.43;7.10;;;7.90;96.00;;;;;;4868304;29;20033;-69
2021/10/13 08:18:00;;;;;;;10.52;6.20;;;7.90;95.80;;;;;;4878073;29;20024;-67
2021/10/13 08:20:26;;;;;;;10.60;5.97;;;7.80;95.80;;;;;;4874274;29;20084;-67
2021/10/13 08:22:52;;;;;;;10.80;5.57;;;7.80;95.70;;;;;;4876504;29;20037;-67
2021/10/13 08:25:18;;;;;;;12.40;6.10;;;7.80;95.80;;;;;;4877768;29;20041;-68
2021/10/13 08:27:43;;;;;;;14.35;7.10;;;7.80;95.90;;;;;;4873880;29;20033;-67
2021/10/13 08:30:10;;;;;;;12.07;6.88;;;7.80;96.00;;;;;;4868172;29;20033;-69
2021/10/13 08:32:36;;;;;;;13.02;7.88;;;7.90;96.00;;;;;;4876752;29;20036;-68
2021/10/13 08:35:04;;;;;;;11.27;7.00;;;7.90;96.00;;;;;;4876898;29;20029;-68
2021/10/13 08:37:29;;;;;;;11.75;7.63;;;8.00;96.00;;;;;;4875075;29;20509;-68
2021/10/13 08:39:55;;;;;;;12.73;6.95;;;7.90;95.90;;;;;;4860742;29;20054;-67
2021/10/13 08:42:25;;;;;;;13.30;7.03;;;8.00;95.90;;;;;;4860729;29;20029;-67
2021/10/13 08:44:55;;;;;;;16.13;7.07;;;8.00;95.90;;;;;;4877094;29;20729;-68
2021/10/13 08:47:21;;;;;;;11.60;6.82;;;8.00;95.90;;;;;;4860507;29;20109;-68
2021/10/13 08:49:47;;;;;;;9.93;6.88;;;8.00;96.00;;;;;;4860590;29;20057;-68
2021/10/13 08:52:14;;;;;;;11.18;6.45;;;8.10;96.00;;;;;;4876734;29;20064;-68
2021/10/13 08:54:41;;;;;;;10.60;6.47;;;8.10;96.00;;;;;;4866522;29;20609;-68
2021/10/13 08:57:18;;;;;;;9.90;6.40;;;8.20;96.10;;;;;;4870558;29;20491;-68
2021/10/13 08:59:47;;;;;;;11.65;6.03;;;8.30;96.20;;;;;;4875293;29;20056;-68
2021/10/13 09:02:14;;;;;;;10.43;6.25;;;8.40;96.10;;;;;;4875749;29;20060;-68
2021/10/13 09:05:02;;;;;;;8.57;5.80;;;8.50;96.10;;;;;;4875655;29;20040;-68
2021/10/13 09:07:27;;;;;;;9.57;4.68;;;8.60;95.90;;;;;;4868815;29;20025;-68
2021/10/13 09:09:53;;;;;;;8.98;4.97;;;8.70;95.90;;;;;;4875146;29;20379;-69
2021/10/13 09:12:45;;;;;;;7.38;4.55;;;8.80;95.90;;;;;;4876915;29;20060;-68
2021/10/13 09:15:13;;;;;;;6.53;4.33;;;8.90;96.10;;;;;;4874670;29;20041;-69
2021/10/13 09:17:55;;;;;;;6.72;4.20;;;8.90;95.80;;;;;;4875640;29;20284;-68
2021/10/13 09:20:25;;;;;;;;;;;9.00;96.00;;;;;;4875086;29;20068;-69
2021/10/13 09:22:58;;;;;;;8.70;6.65;;;9.10;96.00;;;;;;4875983;29;19916;-68
2021/10/13 09:25:24;;;;;;;8.63;4.65;;;9.20;95.70;;;;;;4875787;29;20374;-68
2021/10/13 09:27:50;;;;;;;6.40;4.72;;;9.20;95.70;;;;;;4875822;29;20036;-68
2021/10/13 09:30:23;;;;;;;9.48;4.90;;;9.30;95.70;;;;;;4876844;29;20033;-68
2021/10/13 09:32:49;;;;;;;6.93;4.25;;;9.30;95.50;;;;;;4875280;29;20084;-69
2021/10/13 09:35:25;;;;;;;6.85;4.28;;;9.30;95.50;;;;;;4876139;29;20474;-69
2021/10/13 09:37:51;;;;;;;10.07;4.82;;;9.30;95.50;;;;;;4875255;29;20037;-68
2021/10/13 09:40:29;;;;;;;8.43;4.50;;;9.40;95.60;;;;;;4876129;29;20088;-72
2021/10/13 09:42:58;;;;;;;7.32;3.80;;;9.50;95.60;;;;;;4875737;29;20029;-69
2021/10/13 09:45:29;;;;;;;8.00;3.50;;;9.50;95.30;;;;;;4874354;29;20119;-68
2021/10/13 09:47:58;;;;;;;3.85;2.60;;;9.50;95.40;;;;;;4875417;29;20040;-68
2021/10/13 09:50:47;;;;;;;5.05;2.35;;;9.50;95.50;;;;;;4875486;29;20554;-68
2021/10/13 09:53:19;;;;;;;4.10;1.92;;;9.60;95.50;;;;;;4873542;29;20037;-68
2021/10/13 09:55:44;;;;;;;1.90;1.27;;;9.70;95.50;;;;;;4867523;29;20117;-68
2021/10/13 09:58:28;;;;;;;6.90;2.03;;;9.90;95.50;;;;;;4869969;29;20590;-68
2021/10/13 10:01:10;;;;;;;3.60;1.90;;;10.00;95.40;;;;;;4875696;29;20025;-69
2021/10/13 10:03:37;;;;;;;;;;;10.10;95.20;;;;;;4873968;29;20021;-68
2021/10/13 10:06:03;;;;;;;6.10;2.25;;;10.20;95.00;;;;;;4872869;29;19916;-68
2021/10/13 10:08:29;;;;;;;5.45;2.20;;;10.20;95.00;;;;;;4863386;29;20033;-66
2021/10/13 10:11:04;;;;;;;2.60;1.70;;;10.20;95.30;;;;;;4855180;29;20038;-66
2021/10/13 10:13:35;;;;;;;2.15;1.80;;;10.20;95.10;;;;;;4852414;29;20042;-66
2021/10/13 10:16:01;;;;;;;1.50;1.30;;;10.30;95.00;;;;;;4863402;29;20044;-66
2021/10/13 10:18:34;;;;;;;2.38;1.33;;;10.30;94.80;;;;;;4873973;29;20425;-67
2021/10/13 10:21:18;;;;;;;3.60;1.33;;;10.40;94.90;;;;;;4872765;29;20464;-66
2021/10/13 10:23:46;;;;;;;2.80;2.10;;;10.40;94.50;;;;;;4871550;29;20233;-66
2021/10/13 10:26:24;;;;;;;4.15;2.15;;;10.40;94.50;;;;;;4872899;29;20537;-67
2021/10/13 10:28:50;;;;;;;2.60;2.10;;;10.40;94.40;;;;;;4874171;29;20418;-66
2021/10/13 10:31:31;;;;;;;3.30;2.00;;;10.40;94.50;;;;;;4874655;29;20141;-66
2021/10/13 10:34:17;;;;;;;2.63;2.08;;;10.40;94.40;;;;;;4873314;29;20182;-67
2021/10/13 10:36:43;;;;;;;4.60;1.73;;;10.50;94.50;;;;;;4869374;29;20141;-67
2021/10/13 10:39:14;;;;;;;7.03;2.30;;;10.60;94.50;;;;;;4859031;29;20504;-67
2021/10/13 10:41:52;;;;;;;2.88;1.50;;;10.70;94.60;;;;;;4864882;29;20406;-66
2021/10/13 10:44:47;;;;;;;1.42;1.20;;;10.80;94.50;;;;;;4873410;29;20406;-66
2021/10/13 10:47:17;;;;;;;5.45;3.55;;;10.90;94.30;;;;;;4872899;29;20502;-67
2021/10/13 10:49:46;;;;;;;27.10;10.93;;;11.00;94.30;;;;;;4868870;29;20127;-67
2021/10/13 10:52:19;;;;;;;4.38;1.80;;;11.00;94.10;;;;;;4874235;29;20104;-66
2021/10/13 10:54:58;;;;;;;2.85;1.15;;;11.00;93.90;;;;;;4872005;29;20029;-66
2021/10/13 10:57:46;;;;;;;2.83;1.55;;;10.90;93.80;;;;;;4876384;29;20652;-68
2021/10/13 11:00:21;;;;;;;3.78;2.03;;;10.80;93.80;;;;;;4874432;29;20446;-66
2021/10/13 11:02:50;;;;;;;3.45;2.47;;;10.80;93.80;;;;;;4875152;29;20032;-67
2021/10/13 11:05:21;;;;;;;4.78;2.42;;;10.70;93.80;;;;;;4876080;29;20192;-66
2021/10/13 11:07:48;;;;;;;4.30;2.45;;;10.60;93.80;;;;;;4866661;29;20037;-67
2021/10/13 11:10:15;;;;;;;4.22;1.90;;;10.60;93.90;;;;;;4875323;29;20036;-67
2021/10/13 11:12:51;;;;;;;3.28;2.25;;;10.60;93.90;;;;;;4874740;29;20029;-67
2021/10/13 11:15:18;;;;;;;2.92;2.10;;;10.70;94.00;;;;;;4875933;29;20021;-67
2021/10/13 11:17:44;;;;;;;2.35;2.15;;;10.80;94.00;;;;;;4861622;29;20108;-67
2021/10/13 11:20:12;;;;;;;2.38;1.77;;;10.90;94.00;;;;;;4875286;29;20033;-67
2021/10/13 11:22:38;;;;;;;3.63;1.90;;;10.90;93.90;;;;;;4874295;29;20037;-67
2021/10/13 11:25:17;;;;;;;2.78;1.70;;;11.00;93.90;;;;;;4875185;29;20047;-67
2021/10/13 11:27:56;;;;;;;3.38;1.50;;;11.00;93.80;;;;;;4890070;29;20028;-67
2021/10/13 11:30:21;;;;;;;1.90;1.10;;;11.00;93.60;;;;;;4875325;29;20545;-67
2021/10/13 11:32:47;;;;;;;1.70;1.02;;;10.90;93.50;;;;;;4874255;29;20033;-67
2021/10/13 11:35:13;;;;;;;1.95;1.27;;;10.90;93.50;;;;;;4875497;29;20029;-67
2021/10/13 11:37:39;;;;;;;3.47;1.73;;;11.00;93.50;;;;;;4867617;29;20033;-67
2021/10/13 11:40:06;;;;;;;6.18;2.50;;;11.10;93.50;;;;;;4872474;29;20041;-66
2021/10/13 11:42:32;;;;;;;4.65;2.28;;;11.10;93.30;;;;;;4874683;29;20033;-67
2021/10/13 11:44:57;;;;;;;3.45;2.50;;;11.40;93.30;;;;;;4871538;29;20032;-67
2021/10/13 11:47:36;;;;;;;5.85;3.08;;;11.40;92.90;;;;;;4867121;29;20030;-67
2021/10/13 11:50:08;;;;;;;3.90;2.45;;;11.50;93.10;;;;;;4874888;29;20055;-67
2021/10/13 11:52:35;;;;;;;3.10;1.80;;;11.50;93.20;;;;;;4858499;29;20048;-66
2021/10/13 11:55:08;;;;;;;2.65;1.50;;;11.50;92.80;;;;;;4873817;29;20177;-67
2021/10/13 11:57:37;;;;;;;2.17;1.70;;;11.30;92.50;;;;;;4873862;29;20021;-66
2021/10/13 12:00:23;;;;;;;3.47;1.42;;;11.20;92.50;;;;;;4873991;29;20868;-66
2021/10/13 12:03:28;;;;;;;2.28;1.27;;;11.10;92.40;;;;;;4860367;29;20467;-66
2021/10/13 12:05:56;;;;;;;1.30;1.08;;;11.40;92.60;;;;;;4831874;29;20034;-66
2021/10/13 12:08:37;;;;;;;2.05;1.00;;;11.70;92.80;;;;;;4857430;29;20049;-68
2021/10/13 12:11:09;;;;;;;1.42;0.80;;;11.80;92.70;;;;;;4882219;29;20050;-72
2021/10/13 12:13:37;;;;;;;2.90;1.20;;;11.90;92.50;;;;;;4882338;29;20108;-67
2021/10/13 12:16:08;;;;;;;2.05;1.00;;;12.20;92.20;;;;;;4876533;29;20787;-68
2021/10/13 12:18:40;;;;;;;1.70;1.02;;;12.40;91.90;;;;;;4876162;29;20017;-72
2021/10/13 12:21:13;;;;;;;4.15;1.45;;;12.60;92.00;;;;;;4868318;29;20034;-68
2021/10/13 12:23:44;;;;;;;3.00;1.30;;;12.70;91.60;;;;;;4855826;29;20033;-68
2021/10/13 12:26:13;;;;;;;2.65;1.55;;;12.80;91.40;;;;;;4862048;29;20377;-77
2021/10/13 12:28:39;;;;;;;3.92;2.08;;;12.80;91.40;;;;;;4883641;29;20035;-69
2021/10/13 12:31:08;;;;;;;1.92;1.40;;;12.90;91.40;;;;;;4882767;29;20021;-69
2021/10/13 12:33:52;;;;;;;5.15;1.92;;;12.90;91.10;;;;;;4873383;29;20040;-70
2021/10/13 12:36:24;;;;;;;2.13;1.67;;;12.90;91.00;;;;;;4874246;29;20025;-68
2021/10/13 12:39:03;;;;;;;2.05;1.58;;;12.90;91.10;;;;;;4869224;29;20031;-69
2021/10/13 12:41:30;;;;;;;3.55;1.70;;;12.80;91.00;;;;;;4875632;29;20125;-68
2021/10/13 12:43:56;;;;;;;3.47;1.70;;;12.80;91.00;;;;;;4873058;29;20029;-70
2021/10/13 12:46:28;;;;;;;3.70;2.00;;;12.70;90.90;;;;;;4872166;29;20037;-69
2021/10/13 12:48:55;;;;;;;1.90;1.33;;;12.60;90.80;;;;;;4867330;29;20025;-69
2021/10/13 12:51:21;;;;;;;2.88;1.80;;;12.60;90.80;;;;;;4873841;29;20037;-70
2021/10/13 12:53:47;;;;;;;4.07;1.88;;;12.50;90.70;;;;;;4872926;29;20021;-69
2021/10/13 12:56:16;;;;;;;2.13;1.88;;;12.40;90.80;;;;;;4874183;29;20033;-69
2021/10/13 12:58:45;;;;;;;3.60;1.92;;;12.20;90.60;;;;;;4874168;29;20041;-71